createdAt,value
2019-03-01T00:00:38.366Z,5.24
2019-03-01T00:01:38.277Z,5.21
2019-03-01T00:02:38.202Z,5.24
2019-03-01T00:03:38.119Z,5.24
2019-03-01T00:04:38.027Z,5.22
2019-03-01T00:05:37.944Z,5.22
2019-03-01T00:06:37.852Z,5.21
2019-03-01T00:07:37.782Z,5.20
2019-03-01T00:08:37.694Z,5.15
2019-03-01T00:09:37.603Z,5.24
2019-03-01T00:10:37.516Z,5.12
2019-03-01T00:11:37.429Z,5.18
2019-03-01T00:12:37.353Z,5.18
2019-03-01T00:13:37.267Z,5.13
2019-03-01T00:14:37.179Z,5.07
2019-03-01T00:15:37.091Z,5.07
2019-03-01T00:16:37.005Z,5.12
2019-03-01T00:17:36.929Z,5.20
2019-03-01T00:18:36.841Z,5.15
2019-03-01T00:19:37.005Z,5.04
2019-03-01T00:20:36.667Z,5.06
2019-03-01T00:21:36.603Z,5.17
2019-03-01T00:22:36.504Z,5.06
2019-03-01T00:23:36.417Z,5.13
2019-03-01T00:24:36.329Z,5.10
2019-03-01T00:25:36.243Z,5.00
2019-03-01T00:26:36.171Z,5.12
2019-03-01T00:27:36.096Z,5.12
2019-03-01T00:28:35.996Z,5.09
2019-03-01T00:29:35.904Z,5.04
2019-03-01T00:30:35.824Z,5.12
2019-03-01T00:31:35.745Z,5.13
2019-03-01T00:32:35.655Z,5.18
2019-03-01T00:33:35.570Z,5.15
2019-03-01T00:34:35.493Z,5.20
2019-03-01T00:35:35.396Z,5.22
2019-03-01T00:36:35.322Z,5.21
2019-03-01T00:37:35.231Z,5.27
2019-03-01T00:38:35.144Z,5.24
2019-03-01T00:39:35.056Z,5.33
2019-03-01T00:40:34.969Z,5.24
2019-03-01T00:41:34.894Z,5.24
2019-03-01T00:42:34.806Z,5.27
2019-03-01T00:43:34.755Z,5.21
2019-03-01T00:44:34.635Z,5.35
2019-03-01T00:45:34.556Z,5.27
2019-03-01T00:46:34.470Z,5.30
2019-03-01T00:47:34.381Z,5.24
2019-03-01T00:48:34.295Z,5.40
2019-03-01T00:49:34.207Z,5.40
2019-03-01T00:50:34.131Z,5.38
2019-03-01T00:51:34.045Z,5.36
2019-03-01T00:52:33.957Z,5.36
2019-03-01T00:53:33.870Z,5.33
2019-03-01T00:54:33.795Z,5.46
2019-03-01T00:55:33.707Z,5.43
2019-03-01T00:56:33.622Z,5.48
2019-03-01T00:57:33.533Z,5.46
2019-03-01T00:58:33.445Z,5.40
2019-03-01T00:59:33.359Z,5.46
2019-03-01T01:00:33.288Z,5.56
2019-03-01T01:01:33.197Z,5.60
2019-03-01T01:02:33.108Z,5.57
2019-03-01T01:03:33.022Z,5.49
2019-03-01T01:04:32.946Z,5.54
2019-03-01T01:05:32.859Z,5.54
2019-03-01T01:06:32.773Z,5.54
2019-03-01T01:07:32.684Z,5.56
2019-03-01T01:08:32.597Z,5.51
2019-03-01T01:09:32.522Z,5.54
2019-03-01T01:10:32.434Z,5.54
2019-03-01T01:11:32.347Z,5.51
2019-03-01T01:12:32.259Z,5.53
2019-03-01T01:13:32.184Z,5.53
2019-03-01T01:14:32.097Z,5.58
2019-03-01T01:15:32.013Z,5.57
2019-03-01T01:16:31.923Z,5.57
2019-03-01T01:17:31.838Z,5.53
2019-03-01T01:18:31.760Z,5.61
2019-03-01T01:19:31.973Z,5.72
2019-03-01T01:20:31.585Z,5.63
2019-03-01T01:21:31.499Z,5.54
2019-03-01T01:22:31.424Z,5.72
2019-03-01T01:23:31.335Z,5.64
2019-03-01T01:24:31.252Z,5.72
2019-03-01T01:25:31.161Z,5.63
2019-03-01T01:26:31.074Z,5.71
2019-03-01T01:27:30.999Z,5.74
2019-03-01T01:28:30.911Z,5.74
2019-03-01T01:29:30.823Z,5.82
2019-03-01T01:30:30.737Z,5.76
2019-03-01T01:31:30.675Z,5.74
2019-03-01T01:32:30.574Z,5.75
2019-03-01T01:33:30.486Z,5.82
2019-03-01T01:34:30.403Z,5.76
2019-03-01T01:35:30.330Z,5.75
2019-03-01T01:36:30.237Z,5.82
2019-03-01T01:37:30.150Z,5.82
2019-03-01T01:38:30.062Z,5.79
2019-03-01T01:39:29.987Z,5.78
2019-03-01T01:40:29.901Z,5.90
2019-03-01T01:41:29.812Z,5.94
2019-03-01T01:42:29.725Z,5.96
2019-03-01T01:43:29.638Z,5.91
2019-03-01T01:44:29.562Z,5.83
2019-03-01T01:45:29.479Z,5.85
2019-03-01T01:46:29.389Z,5.76
2019-03-01T01:47:29.301Z,5.89
2019-03-01T01:48:29.226Z,5.86
2019-03-01T01:49:29.138Z,5.65
2019-03-01T01:50:29.064Z,5.67
2019-03-01T01:51:28.963Z,5.68
2019-03-01T01:52:28.892Z,5.67
2019-03-01T01:53:28.802Z,5.67
2019-03-01T01:54:28.713Z,5.72
2019-03-01T01:55:28.630Z,5.78
2019-03-01T01:56:28.552Z,5.82
2019-03-01T01:57:28.467Z,5.83
2019-03-01T01:58:28.377Z,5.93
2019-03-01T01:59:28.290Z,5.91
2019-03-01T02:00:28.216Z,5.99
2019-03-01T02:01:28.128Z,5.96
2019-03-01T02:02:28.039Z,6.03
2019-03-01T02:03:27.953Z,5.99
2019-03-01T02:04:27.866Z,5.99
2019-03-01T02:05:27.789Z,5.91
2019-03-01T02:06:27.703Z,5.93
2019-03-01T02:07:27.615Z,5.96
2019-03-01T02:08:27.529Z,5.94
2019-03-01T02:09:27.453Z,6.00
2019-03-01T02:10:27.368Z,5.99
2019-03-01T02:11:27.282Z,5.96
2019-03-01T02:12:27.190Z,6.06
2019-03-01T02:13:27.115Z,6.11
2019-03-01T02:14:27.029Z,6.06
2019-03-01T02:15:26.957Z,6.04
2019-03-01T02:16:26.857Z,6.09
2019-03-01T02:17:26.785Z,6.11
2019-03-01T02:18:26.691Z,6.06
2019-03-01T02:19:26.907Z,6.06
2019-03-01T02:20:26.517Z,6.06
2019-03-01T02:21:26.454Z,6.08
2019-03-01T02:22:26.355Z,6.04
2019-03-01T02:23:26.266Z,6.03
2019-03-01T02:24:26.180Z,6.12
2019-03-01T02:25:26.104Z,6.12
2019-03-01T02:26:26.018Z,6.06
2019-03-01T02:27:25.930Z,6.14
2019-03-01T02:28:25.845Z,6.12
2019-03-01T02:29:25.782Z,6.09
2019-03-01T02:30:25.694Z,6.06
2019-03-01T02:31:25.593Z,6.09
2019-03-01T02:32:25.513Z,6.14
2019-03-01T02:33:25.432Z,6.04
2019-03-01T02:34:25.353Z,6.11
2019-03-01T02:35:25.257Z,6.14
2019-03-01T02:36:25.169Z,6.06
2019-03-01T02:37:25.094Z,6.09
2019-03-01T02:38:25.007Z,6.14
2019-03-01T02:39:24.920Z,6.18
2019-03-01T02:40:24.850Z,6.17
2019-03-01T02:41:24.759Z,6.12
2019-03-01T02:42:24.668Z,6.15
2019-03-01T02:43:24.582Z,6.15
2019-03-01T02:44:24.746Z,6.28
2019-03-01T02:45:24.409Z,6.22
2019-03-01T02:46:24.342Z,6.25
2019-03-01T02:47:24.245Z,6.25
2019-03-01T02:48:24.164Z,6.30
2019-03-01T02:49:24.071Z,6.28
2019-03-01T02:50:23.994Z,6.21
2019-03-01T02:51:23.910Z,6.21
2019-03-01T02:52:23.832Z,6.21
2019-03-01T02:53:23.734Z,6.25
2019-03-01T02:54:23.659Z,6.27
2019-03-01T02:55:23.571Z,6.19
2019-03-01T02:56:23.484Z,6.27
2019-03-01T02:57:23.397Z,6.22
2019-03-01T02:58:23.320Z,6.25
2019-03-01T02:59:23.234Z,6.28
2019-03-01T03:00:23.157Z,6.28
2019-03-01T03:01:23.060Z,6.22
2019-03-01T03:02:22.985Z,6.22
2019-03-01T03:03:22.895Z,6.21
2019-03-01T03:04:22.825Z,6.19
2019-03-01T03:05:22.721Z,6.25
2019-03-01T03:06:22.662Z,6.18
2019-03-01T03:07:22.560Z,6.15
2019-03-01T03:08:22.471Z,6.28
2019-03-01T03:09:22.385Z,6.25
2019-03-01T03:10:22.318Z,6.19
2019-03-01T03:11:22.228Z,6.27
2019-03-01T03:12:22.135Z,6.25
2019-03-01T03:13:22.049Z,6.27
2019-03-01T03:14:21.978Z,6.25
2019-03-01T03:15:21.884Z,6.22
2019-03-01T03:16:21.797Z,6.27
2019-03-01T03:17:21.722Z,6.21
2019-03-01T03:18:21.641Z,6.15
2019-03-01T03:19:21.797Z,6.08
2019-03-01T03:20:21.462Z,6.15
2019-03-01T03:21:21.376Z,6.12
2019-03-01T03:22:21.312Z,6.17
2019-03-01T03:23:21.212Z,6.14
2019-03-01T03:24:21.124Z,6.09
2019-03-01T03:25:21.049Z,6.18
2019-03-01T03:26:20.975Z,6.14
2019-03-01T03:27:20.874Z,6.14
2019-03-01T03:28:20.787Z,6.15
2019-03-01T03:29:20.704Z,6.08
2019-03-01T03:30:20.639Z,6.04
2019-03-01T03:31:20.545Z,6.09
2019-03-01T03:32:20.452Z,6.19
2019-03-01T03:33:20.375Z,6.11
2019-03-01T03:34:20.296Z,6.12
2019-03-01T03:35:20.203Z,6.18
2019-03-01T03:36:20.114Z,6.18
2019-03-01T03:37:20.038Z,6.12
2019-03-01T03:38:19.949Z,6.15
2019-03-01T03:39:20.163Z,6.11
2019-03-01T03:40:19.775Z,6.11
2019-03-01T03:41:19.701Z,6.14
2019-03-01T03:42:19.614Z,6.04
2019-03-01T03:43:19.528Z,6.09
2019-03-01T03:44:19.438Z,6.08
2019-03-01T03:45:19.368Z,6.11
2019-03-01T03:46:19.275Z,6.09
2019-03-01T03:47:19.188Z,6.09
2019-03-01T03:48:19.101Z,6.03
2019-03-01T03:49:19.026Z,5.94
2019-03-01T03:50:18.942Z,5.96
2019-03-01T03:51:18.909Z,5.99
2019-03-01T03:52:18.772Z,5.96
2019-03-01T03:53:18.690Z,5.96
2019-03-01T03:54:18.602Z,5.99
2019-03-01T03:55:18.522Z,5.97
2019-03-01T03:56:18.427Z,5.96
2019-03-01T03:57:18.352Z,5.89
2019-03-01T03:58:18.265Z,5.97
2019-03-01T03:59:18.179Z,5.94
2019-03-01T04:00:18.091Z,6.01
2019-03-01T04:01:18.035Z,6.00
2019-03-01T04:02:17.930Z,6.04
2019-03-01T04:03:17.842Z,6.04
2019-03-01T04:04:18.052Z,6.01
2019-03-01T04:05:17.677Z,6.04
2019-03-01T04:06:17.590Z,6.04
2019-03-01T04:07:17.504Z,5.91
2019-03-01T04:08:17.417Z,6.01
2019-03-01T04:09:17.341Z,5.99
2019-03-01T04:10:17.258Z,6.00
2019-03-01T04:11:17.165Z,6.04
2019-03-01T04:12:17.078Z,6.08
2019-03-01T04:13:17.022Z,6.08
2019-03-01T04:14:16.917Z,6.15
2019-03-01T04:15:16.829Z,6.17
2019-03-01T04:16:16.745Z,6.12
2019-03-01T04:17:16.673Z,6.21
2019-03-01T04:18:16.578Z,6.30
2019-03-01T04:19:16.793Z,6.18
2019-03-01T04:20:16.404Z,6.21
2019-03-01T04:21:16.331Z,6.21
2019-03-01T04:22:16.241Z,6.28
2019-03-01T04:23:16.155Z,6.33
2019-03-01T04:24:16.068Z,6.36
2019-03-01T04:25:15.988Z,6.36
2019-03-01T04:26:15.904Z,6.40
2019-03-01T04:27:15.821Z,6.44
2019-03-01T04:28:15.730Z,6.41
2019-03-01T04:29:15.668Z,6.44
2019-03-01T04:30:15.582Z,6.46
2019-03-01T04:31:15.482Z,6.44
2019-03-01T04:32:15.398Z,6.36
2019-03-01T04:33:15.310Z,6.34
2019-03-01T04:34:15.231Z,6.40
2019-03-01T04:35:15.149Z,6.38
2019-03-01T04:36:15.058Z,6.34
2019-03-01T04:37:14.980Z,6.31
2019-03-01T04:38:14.893Z,6.33
2019-03-01T04:39:14.805Z,6.37
2019-03-01T04:40:14.731Z,6.38
2019-03-01T04:41:14.644Z,6.36
2019-03-01T04:42:14.556Z,6.30
2019-03-01T04:43:14.469Z,6.34
2019-03-01T04:44:14.393Z,6.30
2019-03-01T04:45:14.295Z,6.30
2019-03-01T04:46:14.220Z,6.22
2019-03-01T04:47:14.132Z,6.22
2019-03-01T04:48:14.057Z,6.18
2019-03-01T04:49:13.957Z,6.30
2019-03-01T04:50:13.904Z,6.27
2019-03-01T04:51:13.795Z,6.21
2019-03-01T04:52:13.712Z,6.22
2019-03-01T04:53:13.621Z,6.27
2019-03-01T04:54:13.548Z,6.22
2019-03-01T04:55:13.457Z,6.25
2019-03-01T04:56:13.370Z,6.30
2019-03-01T04:57:13.286Z,6.33
2019-03-01T04:58:13.207Z,6.21
2019-03-01T04:59:13.121Z,6.28
2019-03-01T05:00:13.033Z,6.31
2019-03-01T05:01:12.947Z,6.28
2019-03-01T05:02:12.859Z,6.25
2019-03-01T05:03:12.784Z,6.15
2019-03-01T05:04:12.696Z,6.11
2019-03-01T05:05:12.609Z,6.17
2019-03-01T05:06:12.521Z,6.03
2019-03-01T05:07:12.447Z,6.15
2019-03-01T05:08:12.361Z,6.15
2019-03-01T05:09:12.274Z,6.15
2019-03-01T05:10:12.196Z,6.15
2019-03-01T05:11:12.109Z,6.19
2019-03-01T05:12:12.024Z,6.09
2019-03-01T05:13:11.934Z,6.18
2019-03-01T05:14:11.847Z,6.22
2019-03-01T05:15:11.759Z,6.22
2019-03-01T05:16:11.684Z,6.17
2019-03-01T05:17:11.598Z,6.21
2019-03-01T05:18:11.510Z,6.27
2019-03-01T05:19:11.423Z,6.28
2019-03-01T05:20:11.348Z,6.22
2019-03-01T05:21:11.260Z,6.25
2019-03-01T05:22:11.176Z,6.30
2019-03-01T05:23:11.085Z,6.19
2019-03-01T05:24:11.013Z,6.30
2019-03-01T05:25:10.925Z,6.27
2019-03-01T05:26:10.836Z,6.18
2019-03-01T05:27:10.748Z,6.15
2019-03-01T05:28:10.662Z,6.17
2019-03-01T05:29:10.586Z,6.18
2019-03-01T05:30:10.504Z,6.18
2019-03-01T05:31:10.411Z,6.21
2019-03-01T05:32:10.325Z,6.21
2019-03-01T05:33:10.249Z,6.22
2019-03-01T05:34:10.161Z,6.22
2019-03-01T05:35:10.076Z,6.21
2019-03-01T05:36:09.987Z,6.22
2019-03-01T05:37:09.911Z,6.22
2019-03-01T05:38:09.825Z,6.34
2019-03-01T05:39:09.987Z,6.33
2019-03-01T05:40:09.650Z,6.30
2019-03-01T05:41:09.575Z,6.31
2019-03-01T05:42:09.487Z,6.31
2019-03-01T05:43:09.400Z,6.37
2019-03-01T05:44:09.313Z,6.36
2019-03-01T05:45:09.228Z,6.33
2019-03-01T05:46:09.150Z,6.22
2019-03-01T05:47:09.062Z,6.33
2019-03-01T05:48:08.976Z,6.31
2019-03-01T05:49:08.888Z,6.37
2019-03-01T05:50:08.826Z,6.36
2019-03-01T05:51:08.726Z,6.40
2019-03-01T05:52:08.639Z,6.40
2019-03-01T05:53:08.558Z,6.36
2019-03-01T05:54:08.465Z,6.27
2019-03-01T05:55:08.390Z,6.36
2019-03-01T05:56:08.302Z,6.41
2019-03-01T05:57:08.214Z,6.44
2019-03-01T05:58:16.198Z,6.48
2019-03-01T05:59:08.055Z,6.48
2019-03-01T06:00:07.964Z,6.58
2019-03-01T06:01:07.878Z,6.44
2019-03-01T06:02:07.790Z,6.55
2019-03-01T06:03:07.728Z,6.41
2019-03-01T06:04:07.628Z,6.40
2019-03-01T06:05:07.541Z,6.58
2019-03-01T06:06:07.465Z,6.55
2019-03-01T06:07:07.378Z,6.48
2019-03-01T06:08:07.292Z,6.49
2019-03-01T06:09:07.217Z,6.48
2019-03-01T06:10:07.118Z,6.52
2019-03-01T06:11:07.054Z,6.55
2019-03-01T06:12:06.956Z,6.52
2019-03-01T06:13:06.866Z,6.54
2019-03-01T06:14:06.793Z,6.54
2019-03-01T06:15:06.704Z,6.54
2019-03-01T06:16:06.616Z,6.55
2019-03-01T06:17:06.529Z,6.62
2019-03-01T06:18:06.455Z,6.69
2019-03-01T06:19:06.366Z,6.73
2019-03-01T06:20:06.279Z,6.79
2019-03-01T06:21:06.205Z,6.77
2019-03-01T06:22:06.116Z,6.74
2019-03-01T06:23:06.037Z,6.56
2019-03-01T06:24:05.944Z,6.62
2019-03-01T06:25:05.867Z,6.67
2019-03-01T06:26:05.780Z,6.69
2019-03-01T06:27:05.705Z,6.67
2019-03-01T06:28:05.606Z,6.70
2019-03-01T06:29:05.520Z,6.66
2019-03-01T06:30:05.448Z,6.56
2019-03-01T06:31:05.356Z,6.61
2019-03-01T06:32:05.269Z,6.59
2019-03-01T06:33:05.205Z,6.64
2019-03-01T06:34:05.106Z,6.67
2019-03-01T06:35:05.018Z,6.73
2019-03-01T06:36:04.952Z,6.77
2019-03-01T06:37:04.856Z,6.79
2019-03-01T06:38:04.814Z,6.77
2019-03-01T06:39:04.683Z,6.76
2019-03-01T06:40:04.594Z,6.76
2019-03-01T06:41:04.520Z,6.77
2019-03-01T06:42:04.435Z,6.87
2019-03-01T06:43:04.344Z,6.87
2019-03-01T06:44:04.274Z,6.88
2019-03-01T06:45:04.182Z,6.81
2019-03-01T06:46:04.094Z,6.85
2019-03-01T06:47:04.008Z,6.91
2019-03-01T06:48:03.933Z,6.92
2019-03-01T06:49:03.846Z,6.94
2019-03-01T06:50:03.759Z,6.89
2019-03-01T06:51:03.672Z,6.91
2019-03-01T06:52:03.595Z,6.95
2019-03-01T06:53:03.508Z,6.95
2019-03-01T06:54:03.450Z,6.97
2019-03-01T06:55:03.344Z,6.97
2019-03-01T06:56:03.260Z,7.03
2019-03-01T06:57:03.170Z,7.03
2019-03-01T06:58:03.083Z,6.99
2019-03-01T06:59:03.260Z,6.97
2019-03-01T07:00:02.951Z,7.02
2019-03-01T07:01:02.835Z,6.95
2019-03-01T07:02:02.943Z,6.97
2019-03-01T07:03:02.670Z,6.95
2019-03-01T07:04:02.585Z,6.92
2019-03-01T07:05:02.496Z,6.94
2019-03-01T07:06:03.659Z,6.92
2019-03-01T07:07:02.335Z,6.84
2019-03-01T07:08:02.246Z,6.79
2019-03-01T07:09:02.174Z,6.69
2019-03-01T07:10:02.084Z,6.64
2019-03-01T07:11:01.996Z,6.59
2019-03-01T07:12:01.913Z,6.61
2019-03-01T07:13:01.843Z,6.64
2019-03-01T07:14:01.747Z,6.54
2019-03-01T07:15:01.660Z,6.54
2019-03-01T07:16:01.586Z,6.61
2019-03-01T07:17:01.497Z,6.58
2019-03-01T07:18:01.429Z,6.62
2019-03-01T07:19:01.323Z,6.62
2019-03-01T07:20:01.250Z,6.71
2019-03-01T07:21:01.162Z,6.77
2019-03-01T07:22:01.074Z,6.80
2019-03-01T07:23:00.986Z,6.66
2019-03-01T07:24:01.172Z,6.69
2019-03-01T07:25:00.823Z,6.70
2019-03-01T07:26:00.737Z,6.69
2019-03-01T07:27:00.652Z,6.56
2019-03-01T07:28:00.574Z,6.61
2019-03-01T07:29:00.486Z,6.56
2019-03-01T07:30:00.429Z,6.49
2019-03-01T07:31:00.323Z,6.48
2019-03-01T07:32:00.237Z,6.46
2019-03-01T07:33:00.149Z,6.49
2019-03-01T07:34:00.073Z,6.52
2019-03-01T07:34:59.987Z,6.56
2019-03-01T07:35:59.912Z,6.64
2019-03-01T07:36:59.815Z,6.64
2019-03-01T07:37:59.733Z,6.62
2019-03-01T07:38:59.650Z,6.67
2019-03-01T07:39:59.576Z,6.80
2019-03-01T07:40:59.474Z,6.79
2019-03-01T07:41:59.390Z,6.76
2019-03-01T07:42:59.313Z,6.81
2019-03-01T07:43:59.224Z,6.81
2019-03-01T07:44:59.138Z,6.87
2019-03-01T07:45:59.063Z,6.81
2019-03-01T07:46:58.975Z,6.81
2019-03-01T07:47:58.897Z,6.84
2019-03-01T07:48:58.802Z,6.95
2019-03-01T07:49:58.725Z,6.85
2019-03-01T07:50:58.638Z,6.91
2019-03-01T07:52:01.607Z,6.89
2019-03-01T07:53:00.292Z,6.95
2019-03-01T07:53:58.394Z,6.87
2019-03-01T07:54:58.301Z,6.98
2019-03-01T07:56:00.702Z,6.92
2019-03-01T07:56:58.139Z,6.97
2019-03-01T07:57:58.052Z,6.99
2019-03-01T07:59:00.228Z,7.02
2019-03-01T07:59:57.885Z,7.02
2019-03-01T08:00:57.801Z,7.02
2019-03-01T08:02:00.657Z,7.02
2019-03-01T08:02:57.628Z,7.05
2019-03-01T08:03:57.556Z,7.02
2019-03-01T08:05:00.039Z,7.07
2019-03-01T08:05:57.377Z,7.16
2019-03-01T08:06:57.291Z,7.10
2019-03-01T08:08:02.557Z,7.15
2019-03-01T08:08:57.128Z,7.25
2019-03-01T08:09:57.053Z,7.23
2019-03-01T08:10:57.422Z,7.13
2019-03-01T08:11:56.890Z,7.17
2019-03-01T08:12:56.791Z,7.10
2019-03-01T08:13:56.703Z,6.99
2019-03-01T08:14:56.681Z,7.05
2019-03-01T08:15:56.541Z,7.09
2019-03-01T08:16:56.853Z,7.02
2019-03-01T08:17:56.371Z,6.99
2019-03-01T08:18:56.292Z,7.06
2019-03-01T08:19:58.713Z,7.12
2019-03-01T08:20:56.118Z,7.16
2019-03-01T08:21:56.046Z,7.15
2019-03-01T08:22:56.789Z,7.13
2019-03-01T08:23:55.873Z,7.15
2019-03-01T08:24:55.795Z,7.23
2019-03-01T08:25:58.425Z,7.17
2019-03-01T08:26:57.042Z,7.21
2019-03-01T08:27:55.545Z,7.32
2019-03-01T08:28:58.627Z,7.32
2019-03-01T08:29:55.373Z,7.20
2019-03-01T08:30:55.281Z,7.31
2019-03-01T08:31:55.766Z,7.27
2019-03-01T08:32:55.118Z,7.25
2019-03-01T08:33:55.064Z,7.21
2019-03-01T08:34:54.944Z,7.24
2019-03-01T08:35:54.868Z,7.23
2019-03-01T08:36:54.780Z,7.28
2019-03-01T08:37:54.696Z,7.25
2019-03-01T08:38:54.875Z,7.28
2019-03-01T08:39:54.532Z,7.49
2019-03-01T08:40:54.545Z,7.39
2019-03-01T08:41:57.481Z,7.45
2019-03-01T08:42:54.298Z,7.42
2019-03-01T08:43:54.194Z,7.40
2019-03-01T08:44:54.640Z,7.45
2019-03-01T08:45:54.031Z,7.39
2019-03-01T08:46:53.945Z,7.34
2019-03-01T08:47:55.505Z,7.42
2019-03-01T08:48:53.781Z,7.46
2019-03-01T08:49:53.696Z,7.46
2019-03-01T08:50:53.607Z,7.57
2019-03-01T08:51:53.532Z,7.61
2019-03-01T08:52:53.445Z,7.53
2019-03-01T08:53:53.369Z,7.55
2019-03-01T08:54:53.282Z,7.60
2019-03-01T08:55:53.196Z,7.58
2019-03-01T08:56:53.108Z,7.71
2019-03-01T08:57:53.021Z,7.61
2019-03-01T08:58:52.945Z,7.71
2019-03-01T08:59:52.859Z,7.72
2019-03-01T09:00:59.244Z,7.80
2019-03-01T09:01:52.700Z,7.77
2019-03-01T09:02:52.608Z,7.68
2019-03-01T09:03:52.533Z,7.67
2019-03-01T09:04:52.452Z,7.67
2019-03-01T09:05:52.359Z,7.61
2019-03-01T09:06:52.272Z,7.74
2019-03-01T09:07:52.197Z,7.69
2019-03-01T09:08:52.109Z,7.69
2019-03-01T09:09:53.658Z,7.71
2019-03-01T09:10:51.946Z,7.64
2019-03-01T09:11:51.861Z,7.74
2019-03-01T09:12:51.775Z,7.64
2019-03-01T09:13:51.685Z,7.68
2019-03-01T09:14:51.622Z,7.74
2019-03-01T09:15:51.524Z,7.68
2019-03-01T09:16:51.436Z,7.68
2019-03-01T09:17:51.360Z,7.69
2019-03-01T09:18:51.285Z,7.58
2019-03-01T09:19:51.185Z,7.64
2019-03-01T09:20:51.109Z,7.55
2019-03-01T09:21:51.105Z,7.49
2019-03-01T09:22:50.935Z,7.55
2019-03-01T09:23:52.116Z,7.53
2019-03-01T09:24:50.774Z,7.53
2019-03-01T09:25:50.685Z,7.55
2019-03-01T09:26:51.573Z,7.58
2019-03-01T09:27:50.524Z,7.50
2019-03-01T09:28:50.450Z,7.58
2019-03-01T09:29:50.361Z,7.52
2019-03-01T09:30:50.274Z,7.49
2019-03-01T09:31:50.817Z,7.45
2019-03-01T09:32:50.112Z,7.48
2019-03-01T09:33:50.024Z,7.49
2019-03-01T09:34:49.936Z,7.57
2019-03-01T09:35:50.089Z,7.57
2019-03-01T09:36:51.440Z,7.68
2019-03-01T09:37:49.686Z,7.49
2019-03-01T09:38:49.852Z,7.53
2019-03-01T09:39:50.457Z,7.61
2019-03-01T09:40:49.437Z,7.57
2019-03-01T09:41:49.351Z,7.48
2019-03-01T09:42:51.374Z,7.42
2019-03-01T09:43:49.200Z,7.45
2019-03-01T09:44:49.101Z,7.34
2019-03-01T09:45:49.566Z,7.35
2019-03-01T09:46:48.937Z,7.42
2019-03-01T09:47:48.856Z,7.42
2019-03-01T09:48:49.413Z,7.46
2019-03-01T09:49:48.688Z,7.46
2019-03-01T09:50:48.601Z,7.46
2019-03-01T09:51:50.013Z,7.52
2019-03-01T09:52:48.438Z,7.52
2019-03-01T09:53:48.351Z,7.55
2019-03-01T09:54:48.263Z,7.48
2019-03-01T09:55:48.190Z,7.63
2019-03-01T09:56:48.102Z,7.64
2019-03-01T09:57:48.014Z,7.55
2019-03-01T09:58:47.939Z,7.64
2019-03-01T09:59:47.855Z,7.68
2019-03-01T10:00:55.933Z,7.57
2019-03-01T10:01:47.689Z,7.64
2019-03-01T10:02:47.602Z,7.60
2019-03-01T10:03:47.535Z,7.63
2019-03-01T10:04:47.439Z,7.69
2019-03-01T10:05:47.353Z,7.69
2019-03-01T10:06:47.264Z,7.68
2019-03-01T10:07:47.189Z,7.67
2019-03-01T10:08:47.103Z,7.60
2019-03-01T10:09:47.014Z,7.74
2019-03-01T10:10:46.928Z,7.68
2019-03-01T10:11:46.856Z,7.71
2019-03-01T10:12:46.765Z,7.75
2019-03-01T10:13:46.679Z,7.82
2019-03-01T10:14:46.604Z,7.68
2019-03-01T10:15:46.520Z,7.60
2019-03-01T10:16:46.428Z,7.64
2019-03-01T10:17:46.355Z,7.69
2019-03-01T10:18:46.269Z,7.74
2019-03-01T10:19:46.179Z,7.85
2019-03-01T10:20:46.118Z,7.80
2019-03-01T10:21:46.016Z,7.72
2019-03-01T10:22:45.930Z,7.69
2019-03-01T10:23:45.855Z,7.71
2019-03-01T10:24:45.779Z,7.72
2019-03-01T10:25:45.679Z,7.69
2019-03-01T10:26:45.594Z,7.85
2019-03-01T10:27:45.516Z,7.90
2019-03-01T10:28:45.430Z,7.92
2019-03-01T10:29:45.343Z,7.79
2019-03-01T10:30:45.282Z,7.82
2019-03-01T10:31:45.185Z,7.82
2019-03-01T10:32:45.094Z,7.83
2019-03-01T10:33:45.017Z,7.87
2019-03-01T10:34:44.931Z,7.86
2019-03-01T10:35:44.844Z,7.89
2019-03-01T10:36:44.767Z,7.97
2019-03-01T10:37:44.680Z,8.00
2019-03-01T10:38:44.605Z,8.00
2019-03-01T10:39:44.519Z,7.98
2019-03-01T10:40:44.431Z,7.98
2019-03-01T10:41:44.344Z,7.98
2019-03-01T10:42:44.268Z,8.04
2019-03-01T10:43:44.181Z,8.01
2019-03-01T10:44:44.106Z,8.02
2019-03-01T10:45:44.018Z,7.98
2019-03-01T10:46:43.932Z,7.86
2019-03-01T10:47:43.845Z,7.87
2019-03-01T10:48:43.768Z,7.87
2019-03-01T10:49:43.681Z,7.80
2019-03-01T10:50:43.607Z,7.90
2019-03-01T10:51:43.521Z,7.79
2019-03-01T10:52:43.432Z,7.85
2019-03-01T10:53:43.348Z,7.69
2019-03-01T10:54:43.269Z,7.79
2019-03-01T10:55:43.183Z,7.74
2019-03-01T10:56:43.107Z,7.79
2019-03-01T10:57:43.020Z,7.77
2019-03-01T10:58:43.732Z,7.72
2019-03-01T10:59:42.847Z,7.69
2019-03-01T11:00:42.770Z,7.71
2019-03-01T11:01:42.683Z,7.69
2019-03-01T11:02:42.597Z,7.69
2019-03-01T11:03:42.520Z,7.82
2019-03-01T11:04:42.434Z,7.72
2019-03-01T11:05:42.354Z,7.71
2019-03-01T11:06:42.274Z,7.63
2019-03-01T11:07:42.184Z,7.64
2019-03-01T11:08:42.098Z,7.64
2019-03-01T11:09:42.021Z,7.55
2019-03-01T11:10:41.934Z,7.64
2019-03-01T11:11:41.846Z,7.55
2019-03-01T11:12:41.771Z,7.55
2019-03-01T11:13:41.685Z,7.55
2019-03-01T11:14:41.597Z,7.50
2019-03-01T11:15:41.523Z,7.48
2019-03-01T11:16:41.434Z,7.46
2019-03-01T11:17:41.347Z,7.50
2019-03-01T11:18:41.271Z,7.55
2019-03-01T11:19:41.185Z,7.45
2019-03-01T11:20:41.097Z,7.50
2019-03-01T11:21:41.011Z,7.32
2019-03-01T11:22:40.936Z,7.35
2019-03-01T11:23:40.861Z,7.30
2019-03-01T11:24:40.763Z,7.23
2019-03-01T11:25:40.693Z,7.24
2019-03-01T11:26:40.598Z,7.27
2019-03-01T11:27:40.511Z,7.24
2019-03-01T11:28:40.438Z,7.27
2019-03-01T11:29:40.348Z,7.35
2019-03-01T11:30:40.261Z,7.37
2019-03-01T11:31:40.188Z,7.39
2019-03-01T11:32:40.098Z,7.39
2019-03-01T11:33:40.012Z,7.37
2019-03-01T11:34:39.924Z,7.35
2019-03-01T11:35:39.850Z,7.43
2019-03-01T11:36:39.762Z,7.52
2019-03-01T11:37:39.674Z,7.55
2019-03-01T11:38:39.599Z,7.48
2019-03-01T11:39:39.514Z,7.48
2019-03-01T11:40:39.427Z,7.50
2019-03-01T11:41:39.349Z,7.52
2019-03-01T11:42:39.263Z,7.53
2019-03-01T11:43:39.188Z,7.48
2019-03-01T11:44:39.100Z,7.50
2019-03-01T11:45:39.013Z,7.49
2019-03-01T11:46:38.925Z,7.39
2019-03-01T11:47:38.840Z,7.32
2019-03-01T11:48:38.763Z,7.21
2019-03-01T11:49:38.679Z,7.12
2019-03-01T11:50:38.589Z,7.28
2019-03-01T11:51:38.514Z,7.30
2019-03-01T11:52:38.425Z,7.25
2019-03-01T11:53:38.342Z,7.35
2019-03-01T11:54:38.265Z,7.42
2019-03-01T11:55:38.176Z,7.39
2019-03-01T11:56:38.090Z,7.40
2019-03-01T11:57:38.003Z,7.45
2019-03-01T11:58:38.179Z,7.46
2019-03-01T11:59:37.841Z,7.48
2019-03-01T12:00:37.752Z,7.46
2019-03-01T12:01:37.676Z,7.35
2019-03-01T12:02:37.590Z,7.39
2019-03-01T12:03:37.503Z,7.24
2019-03-01T12:04:37.428Z,7.28
2019-03-01T12:05:37.340Z,7.28
2019-03-01T12:06:37.252Z,7.25
2019-03-01T12:07:37.180Z,7.27
2019-03-01T12:08:37.090Z,7.12
2019-03-01T12:09:37.003Z,7.21
2019-03-01T12:10:36.916Z,7.31
2019-03-01T12:11:36.840Z,7.42
2019-03-01T12:12:36.765Z,7.40
2019-03-01T12:13:36.665Z,7.52
2019-03-01T12:14:36.590Z,7.45
2019-03-01T12:15:36.502Z,7.27
2019-03-01T12:16:36.428Z,6.97
2019-03-01T12:17:36.340Z,7.13
2019-03-01T12:18:36.253Z,7.16
2019-03-01T12:19:36.167Z,7.12
2019-03-01T12:20:36.079Z,7.35
2019-03-01T12:21:36.052Z,7.28
2019-03-01T12:22:35.916Z,7.34
2019-03-01T12:23:35.828Z,7.17
2019-03-01T12:24:35.753Z,7.13
2019-03-01T12:25:35.668Z,7.16
2019-03-01T12:26:35.592Z,7.15
2019-03-01T12:27:35.517Z,7.15
2019-03-01T12:28:35.416Z,7.17
2019-03-01T12:29:35.329Z,7.23
2019-03-01T12:30:35.242Z,7.23
2019-03-01T12:31:35.178Z,7.25
2019-03-01T12:32:35.080Z,7.25
2019-03-01T12:33:34.995Z,7.25
2019-03-01T12:34:34.917Z,7.10
2019-03-01T12:35:34.830Z,7.13
2019-03-01T12:36:34.744Z,7.23
2019-03-01T12:37:34.656Z,7.28
2019-03-01T12:38:34.831Z,7.23
2019-03-01T12:39:34.498Z,7.23
2019-03-01T12:40:34.407Z,7.27
2019-03-01T12:41:34.343Z,7.24
2019-03-01T12:42:34.247Z,7.17
2019-03-01T12:43:34.155Z,7.25
2019-03-01T12:44:34.081Z,7.23
2019-03-01T12:45:33.993Z,7.24
2019-03-01T12:46:33.906Z,7.34
2019-03-01T12:47:33.844Z,7.15
2019-03-01T12:48:33.744Z,7.10
2019-03-01T12:49:33.657Z,7.02
2019-03-01T12:50:33.570Z,6.94
2019-03-01T12:51:33.557Z,7.13
2019-03-01T12:52:33.406Z,7.23
2019-03-01T12:53:33.322Z,7.24
2019-03-01T12:54:33.245Z,7.31
2019-03-01T12:55:33.156Z,7.40
2019-03-01T12:56:33.070Z,7.46
2019-03-01T12:57:32.997Z,7.42
2019-03-01T12:58:33.707Z,7.35
2019-03-01T12:59:32.826Z,7.34
2019-03-01T13:00:32.734Z,7.25
2019-03-01T13:01:32.659Z,7.15
2019-03-01T13:02:32.572Z,7.13
2019-03-01T13:03:32.496Z,7.17
2019-03-01T13:04:32.408Z,7.15
2019-03-01T13:05:32.329Z,7.17
2019-03-01T13:06:32.246Z,7.20
2019-03-01T13:07:32.159Z,7.16
2019-03-01T13:08:32.071Z,7.10
2019-03-01T13:09:31.995Z,7.17
2019-03-01T13:10:31.897Z,7.15
2019-03-01T13:11:31.823Z,7.09
2019-03-01T13:12:31.734Z,7.05
2019-03-01T13:13:34.601Z,7.05
2019-03-01T13:14:31.572Z,7.02
2019-03-01T13:15:31.499Z,7.03
2019-03-01T13:16:31.398Z,6.99
2019-03-01T13:17:33.754Z,7.06